Redwood City, CA (94065)

11:49 AM PDT on October 24, 2014 (GMT -0700)
Redwood Shores | Change Station
CLOSE
Current Station
Personal Weather Station
Location: Redwood City, CA
Elevation: 5 ft
Nearby Weather Stations

Elev 5 ft 37.53 °N, 122.25 °W | Updated 13 seconds ago

Clear
Clear
68.2 °F
Feels Like 68.2 °F
N
2.9
Wind Variable Wind from NNW
Gusts 4.3 mph

Today
High -- | Low -- °F
--% Chance of Precip.
Yesterday
High -- | Low -- °F
Precip. -- in
7:25 AM 6:19 PM
New Moon, 1% visible
Pressure 29.98 in
Visibility 10.0 miles
Clouds Clear
Dew Point 60 °F
Humidity 76%
Rainfall 0.00 in
Snow Depth Not available.
UV 3 out of 12
Pollen 2.60 out of 12
Ozone Good
PM2.5 Moderate
Flu Activity Sporadic
METAR KSQL 241747Z 00000KT 10SM SKC 18/13 A2998

More Conditions Fewer Conditions

Pressure 29.98 in
Visibility 10.0 miles
Clouds Clear
Dew Point 60 °F
Humidity 76%
Rainfall 0.00 in
Snow Depth Not available.
UV 3 out of 12
Pollen 2.60 out of 12
Ozone Good
PM2.5 Moderate
Flu Activity Sporadic
METAR KSQL 241747Z 00000KT 10SM SKC 18/13 A2998

More Conditions Fewer Conditions

10-Day Weather Forecast

Almanac

Astronomy

Oct. 24, 2014 Rise Set
Actual Time 7:25 AM PDT 6:19 PM PDT
Civil Twilight 6:59 AM PDT 6:46 PM PDT
Nautical Twilight 6:28 AM PDT 7:17 PM PDT
Astronomical Twilight 5:58 AM PDT 7:47 PM PDT
Moon 8:09 AM PDT 7:04 PM PDT
Length of Visible Light 11h 47m
Length of Day
10h 53m
Tomorrow will be 2m 14s shorter.
New Moon, 1% of the Moon is Illuminated
Today
New Moon
Oct 30
First Quarter
Nov 6
Full
Nov 14
Last Quarter
Nov 22
New

Today's Extremes

State Highs State Lows

Community

WunderPhotos

Upload Photos

1,764,634 photos uploaded!

Nearby

Air Quality

  Air Quality AQ Index Pollutant
Yesterday Good
OZONE
Yesterday Good
PM2.5
Current Moderate
PM2.5
Current Good
OZONE
Friday Good
OZONE
Saturday Good
OZONE
Sunday Good
OZONE
Monday Good
PM2.5
Tuesday Good
PM2.5
Wednesday Moderate
PM2.5

Snow Depth

Station Depth Elevation
Leavitt Lake 0 in 9400 ft
Rubicon #2 0 in 7500 ft
Ward Creek #3 9 in 6750 ft
Leavitt Meadows 0 in 7200 ft
Squaw Valley 0 in 8200 ft

Earthquake Activity

City Distance Mag. Time & Date
No recent earthquake activity has been reported nearby.
Minimum magnitude displayed is 2.5.

Coastal Water Temperatures

Place Temperature
No Stations Reporting

Nearby Weather Stations